Date,TemperatureHighF,TemperatureAvgF,TemperatureLowF,DewpointHighF,DewpointAvgF,DewpointLowF,HumidityHigh,HumidityAvg,HumidityLow,PressureMaxIn,PressureMinIn,WindSpeedMaxMPH,WindSpeedAvgMPH,GustSpeedMaxMPH,PrecipitationSumIn
2013-1-1,66.0,60.7,58.0,60.0,57.2,54.0,99,88,73,0.00,40.00,15,11,25,0.06
2013-1-2,70.0,61.0,56.0,61.0,57.2,53.0,98,88,72,0.00,40.00,10,7,19,0.04
2013-1-3,69.0,61.0,58.0,59.0,56.7,55.0,96,86,70,0.00,40.00,15,10,33,0.01
2013-1-4,65.0,60.4,57.0,56.0,55.0,53.0,95,83,66,0.00,40.00,16,10,28,0.01
2013-1-5,66.0,61.4,58.0,60.0,56.3,53.0,93,83,76,0.00,40.00,19,12,32,0.04
2013-1-6,69.0,61.9,59.0,61.0,56.9,54.0,98,84,70,0.00,40.00,16,8,30,0.04
2013-1-7,67.0,62.0,58.0,62.0,57.5,55.0,98,86,72,0.00,40.00,10,7,19,0.01
2013-1-8,67.0,61.9,59.0,60.0,57.4,55.0,94,86,74,0.00,40.00,9,4,16,0.07
2013-1-9,68.0,62.0,58.0,62.0,58.0,56.0,96,87,72,0.00,40.00,12,5,19,0.05
2013-1-10,71.0,61.1,54.0,63.0,56.5,52.0,99,86,57,0.00,40.00,9,4,16,0.05
2013-1-11,71.0,61.0,54.0,62.0,55.8,52.0,98,84,71,0.00,40.00,11,6,19,0.00
2013-1-12,69.0,60.9,54.0,61.0,56.5,50.0,98,86,71,0.00,40.00,10,4,14,0.00
2013-1-13,68.0,60.9,58.0,62.0,59.2,56.0,100,94,71,0.00,40.00,14,8,25,0.61
2013-1-14,69.0,61.1,55.0,66.0,58.3,54.0,100,92,62,0.00,40.00,6,1,13,0.83
2013-1-15,70.0,56.5,48.0,55.0,50.0,43.0,100,82,38,0.00,40.00,2,0,12,0.01
2013-1-16,69.0,58.0,52.0,58.0,54.1,50.0,100,89,57,0.00,40.00,5,1,12,0.04
2013-1-17,65.0,55.4,49.0,56.0,51.7,49.0,99,88,64,0.00,40.00,4,1,12,0.03
2013-1-18,66.0,55.7,51.0,59.0,52.7,47.0,100,90,63,0.00,40.00,7,2,19,0.03
2013-1-19,63.0,54.8,49.0,53.0,49.0,46.0,92,81,63,0.00,40.00,13,6,22,0.02
2013-1-20,71.0,57.2,48.0,54.0,46.2,35.0,89,69,28,0.00,40.00,13,5,20,0.00
2013-1-21,73.0,60.7,53.0,56.0,49.9,38.0,85,69,47,0.00,40.00,12,7,20,0.00
2013-1-22,71.0,61.4,54.0,59.0,51.8,38.0,93,72,48,0.00,40.00,11,3,14,0.00
2013-1-23,62.0,57.2,52.0,58.0,54.6,50.0,100,91,84,0.00,40.00,6,2,11,0.00
2013-1-24,72.0,61.8,56.0,58.0,55.2,52.0,95,81,50,0.00,40.00,8,4,13,0.00
2013-1-25,66.0,60.4,57.0,60.0,55.5,52.0,96,84,78,0.00,40.00,10,6,17,0.00
2013-1-26,68.0,60.3,57.0,60.0,56.9,54.0,100,89,72,0.00,40.00,11,9,24,0.22
2013-1-27,60.0,57.4,53.0,60.0,57.4,53.0,100,100,98,0.00,40.00,8,3,23,1.52
2013-1-28,65.0,57.7,52.0,60.0,54.6,49.0,99,90,73,0.00,40.00,11,3,20,0.31
2013-1-29,67.0,58.1,52.0,60.0,55.0,52.0,100,90,72,0.00,40.00,8,2,14,0.01
2013-1-30,67.0,59.8,53.0,61.0,55.6,52.0,99,86,67,0.00,40.00,7,3,13,0.01
2013-1-31,71.0,61.6,54.0,59.0,53.3,50.0,91,75,58,0.00,40.00,12,6,23,0.00
2013-2-1,73.0,62.8,55.0,51.0,38.9,20.0,74,43,19,0.00,40.00,15,7,23,0.00
2013-2-2,71.0,61.0,53.0,58.0,51.7,45.0,95,73,49,0.00,40.00,15,6,24,0.00
2013-2-3,70.0,60.1,52.0,62.0,49.8,34.0,93,70,37,0.00,40.00,12,4,20,0.00
2013-2-4,66.0,59.2,54.0,54.0,48.5,38.0,88,68,51,0.00,40.00,16,10,28,0.00
2013-2-5,63.0,58.5,56.0,58.0,53.2,50.0,88,83,72,0.00,40.00,12,6,21,0.01
2013-2-6,69.0,59.8,55.0,56.0,53.4,50.0,91,80,62,0.00,40.00,14,9,28,0.01
2013-2-7,70.0,61.6,58.0,60.0,56.6,54.0,93,84,66,0.00,40.00,11,6,18,0.00
2013-2-8,70.0,59.8,54.0,62.0,57.4,54.0,100,92,76,0.00,40.00,4,1,8,0.00
2013-2-9,71.0,59.9,51.0,61.0,52.2,46.0,99,77,53,0.00,40.00,8,4,16,0.00
2013-2-10,71.0,62.1,56.0,56.0,52.5,46.0,88,72,45,0.00,40.00,10,6,24,0.00
2013-2-11,69.0,60.7,56.0,62.0,54.6,51.0,90,81,64,0.00,40.00,13,7,29,0.00
2013-2-12,68.0,57.9,53.0,57.0,51.9,49.0,87,81,64,0.00,40.00,13,6,27,0.00
2013-2-13,70.0,57.9,52.0,56.0,52.0,48.0,94,82,60,0.00,40.00,14,4,22,0.00
2013-2-14,67.0,58.1,53.0,58.0,51.8,48.0,89,80,55,0.00,40.00,12,5,22,0.00
2013-2-15,69.0,60.4,55.0,60.0,53.4,49.0,90,78,57,0.00,40.00,9,4,19,0.00
2013-2-16,66.0,60.2,57.0,56.0,51.6,44.0,90,74,54,0.00,40.00,15,8,34,0.01
2013-2-17,65.0,59.4,56.0,55.0,51.6,49.0,88,76,59,0.00,40.00,14,10,39,0.01
2013-2-18,65.0,59.0,55.0,54.0,49.9,47.0,92,73,59,0.00,40.00,17,11,35,0.00
2013-2-19,63.0,58.3,55.0,54.0,51.0,48.0,93,77,58,0.00,40.00,16,8,33,0.01
2013-2-20,66.0,59.2,56.0,59.0,53.1,50.0,94,81,65,0.00,40.00,10,7,24,0.04
2013-2-21,64.0,58.2,55.0,58.0,54.5,49.0,97,87,77,0.00,40.00,7,5,21,0.11
2013-2-22,66.0,60.3,57.0,59.0,55.5,54.0,93,85,73,0.00,40.00,12,8,26,0.04
2013-2-23,67.0,60.9,57.0,58.0,54.4,53.0,93,80,65,0.00,40.00,13,9,31,0.01
2013-2-24,67.0,60.0,55.0,54.0,51.7,49.0,88,75,56,0.00,40.00,12,8,32,0.01
2013-2-25,67.0,60.0,56.0,53.0,51.5,49.0,85,74,53,0.00,40.00,13,8,27,0.00
2013-2-26,68.0,60.1,56.0,55.0,51.8,49.0,89,75,54,0.00,40.00,13,7,26,0.01
2013-2-27,72.0,60.6,53.0,55.0,49.9,44.0,87,69,47,0.00,40.00,12,5,26,0.01
2013-2-28,67.0,59.7,55.0,53.0,49.8,47.0,81,71,49,0.00,40.00,10,5,22,0.00
2013-3-1,66.0,58.8,55.0,53.0,48.8,43.0,79,70,48,0.00,40.00,13,8,31,0.00
2013-3-2,67.0,59.7,55.0,51.0,49.5,47.0,81,69,53,0.00,40.00,12,8,28,0.00
2013-3-3,68.0,58.8,54.0,52.0,48.8,44.0,81,70,52,0.00,40.00,14,7,27,0.00
2013-3-4,69.0,58.9,54.0,53.0,49.2,39.0,84,71,52,0.00,40.00,14,7,30,0.00
2013-3-5,68.0,58.6,51.0,55.0,49.8,39.0,87,74,54,0.00,40.00,14,5,26,0.00
2013-3-6,68.0,57.8,50.0,58.0,53.2,49.0,98,85,65,0.00,40.00,5,1,11,0.00
2013-3-7,65.0,56.1,50.0,58.0,52.5,50.0,100,89,66,0.00,40.00,3,1,9,0.00
2013-3-8,67.0,58.4,52.0,58.0,54.3,50.0,100,87,66,0.00,40.00,7,3,24,0.41
2013-3-9,59.0,57.4,57.0,58.0,57.3,56.0,100,100,91,0.00,40.00,7,5,19,0.96
2013-3-10,67.0,58.4,53.0,59.0,53.9,49.0,100,87,56,0.00,40.00,6,3,15,0.27
2013-3-11,60.0,54.8,50.0,55.0,52.0,49.0,99,91,76,0.00,40.00,2,1,10,0.00
2013-3-12,69.0,57.1,49.0,55.0,50.3,48.0,98,80,51,0.00,40.00,4,2,15,0.00
2013-3-13,65.0,55.4,48.0,54.0,50.5,47.0,100,85,60,0.00,40.00,4,2,12,0.00
2013-3-14,68.0,55.8,50.0,53.0,50.0,48.0,99,83,57,0.00,40.00,4,1,13,0.00
2013-3-15,60.0,54.4,51.0,58.0,53.5,51.0,100,97,81,0.00,40.00,6,3,17,0.54
2013-3-16,63.0,53.9,48.0,57.0,51.3,48.0,100,92,66,0.00,40.00,4,2,12,0.33
2013-3-17,63.0,53.0,47.0,56.0,50.3,42.0,100,91,66,0.00,40.00,7,3,13,0.25
2013-3-18,66.0,55.1,48.0,52.0,48.7,45.0,100,81,53,0.00,40.00,7,2,12,0.01
2013-3-19,67.0,57.2,48.0,60.0,50.0,44.0,96,78,55,0.00,40.00,6,2,15,0.01
2013-3-20,69.0,59.7,52.0,58.0,54.1,47.0,99,83,58,0.00,40.00,8,5,17,0.00
2013-3-21,63.0,60.2,56.0,61.0,56.5,48.0,100,88,65,0.00,40.00,14,9,24,0.18
2013-3-22,72.0,62.0,57.0,65.0,59.8,57.0,100,93,71,0.00,40.00,6,2,14,0.47
2013-3-23,65.0,59.4,55.0,61.0,56.2,54.0,98,90,77,0.00,40.00,9,4,15,0.04
2013-3-24,66.0,60.2,56.0,61.0,56.5,51.0,97,88,66,0.00,40.00,8,3,14,0.19
2013-3-25,70.0,61.9,57.0,62.0,59.2,56.0,99,91,74,0.00,40.00,8,3,14,0.06
2013-3-26,67.0,60.8,57.0,63.0,59.8,57.0,100,97,87,0.00,40.00,8,4,15,0.64
2013-3-27,63.0,59.1,57.0,59.0,57.7,56.0,100,95,83,0.00,40.00,13,6,26,0.66
2013-3-28,68.0,62.4,58.0,59.0,55.9,53.0,92,79,72,0.00,40.00,10,7,19,0.01
2013-3-29,67.0,58.8,55.0,61.0,56.0,52.0,100,91,71,0.00,40.00,10,4,17,0.32
2013-3-30,65.0,57.3,50.0,61.0,53.0,-99.9,100,91,79,0.00,40.00,12,5,26,0.13
2013-3-31,63.0,53.8,48.0,52.0,49.3,46.0,98,86,64,0.00,40.00,9,3,21,0.01
2013-4-1,59.0,52.6,50.0,56.0,51.4,47.0,100,96,76,0.00,40.00,5,3,18,0.31
2013-4-2,63.0,54.5,49.0,53.0,50.6,47.0,100,87,69,0.00,40.00,6,2,12,0.03
2013-4-3,63.0,55.2,47.0,55.0,50.0,45.0,98,84,62,0.00,40.00,7,3,11,0.00
2013-4-4,71.0,58.9,48.0,58.0,52.8,47.0,100,82,58,0.00,40.00,7,2,12,0.00
2013-4-5,70.0,60.1,52.0,62.0,55.6,51.0,100,86,64,0.00,40.00,4,1,10,0.00
2013-4-6,75.0,64.7,54.0,61.0,56.2,51.0,95,75,56,0.00,40.00,9,5,14,0.00
2013-4-7,77.0,64.0,55.0,64.0,58.2,53.0,100,83,55,0.00,40.00,7,2,13,0.00
2013-4-8,76.0,63.6,56.0,65.0,57.7,51.0,96,82,51,0.00,40.00,6,2,13,0.00
2013-4-9,72.0,61.9,53.0,61.0,56.1,51.0,100,83,58,0.00,40.00,6,2,11,0.00
2013-4-10,71.0,63.3,57.0,61.0,56.9,52.0,97,81,59,0.00,40.00,8,3,15,0.00
2013-4-11,72.0,63.2,55.0,61.0,58.6,53.0,98,86,63,0.00,40.00,11,5,19,0.00
2013-4-12,64.0,61.1,59.0,64.0,60.1,57.0,100,97,91,0.00,40.00,14,8,25,0.17
2013-4-13,62.0,59.7,58.0,61.0,58.9,56.0,100,97,87,0.00,40.00,18,10,32,1.28
2013-4-14,66.0,61.3,55.0,63.0,58.9,52.0,100,93,73,0.00,40.00,5,3,13,0.55
2013-4-15,66.0,60.6,55.0,65.0,59.4,53.0,100,96,84,0.00,40.00,5,1,10,0.13
2013-4-16,67.0,62.3,58.0,63.0,60.8,58.0,100,95,86,0.00,40.00,6,3,14,0.02
2013-4-17,71.0,62.6,56.0,64.0,59.2,55.0,100,89,63,0.00,40.00,8,2,12,0.01
2013-4-18,71.0,62.4,56.0,62.0,58.1,55.0,100,87,66,0.00,40.00,6,2,15,0.01
2013-4-19,72.0,63.4,58.0,65.0,58.4,54.0,100,85,58,0.00,40.00,10,4,20,0.35
2013-4-20,70.0,62.8,59.0,62.0,59.3,56.0,99,89,70,0.00,40.00,10,4,14,0.21
2013-4-21,66.0,61.2,58.0,62.0,59.8,56.0,100,95,79,0.00,40.00,4,2,12,0.76
2013-4-22,62.0,59.7,57.0,62.0,59.5,57.0,100,99,93,0.00,40.00,12,3,18,0.99
2013-4-23,68.0,62.1,58.0,65.0,60.2,57.0,100,94,71,0.00,40.00,3,1,13,0.42
2013-4-24,72.0,64.2,57.0,65.0,60.5,57.0,100,89,71,0.00,40.00,3,1,10,0.02
2013-4-25,74.0,63.7,57.0,65.0,60.5,56.0,100,90,73,0.00,40.00,6,2,11,0.04
2013-4-26,73.0,63.7,57.0,63.0,57.6,52.0,98,82,57,0.00,40.00,8,3,15,0.02
2013-4-27,72.0,62.3,54.0,61.0,56.6,52.0,98,82,61,0.00,40.00,11,3,19,0.00
2013-4-28,65.0,61.8,60.0,63.0,60.9,58.0,100,96,89,0.00,40.00,12,8,27,0.63
2013-4-29,70.0,63.5,61.0,63.0,61.3,59.0,100,93,73,0.00,40.00,11,5,22,0.37
2013-4-30,67.0,63.6,61.0,66.0,62.9,61.0,100,98,90,0.00,40.00,6,2,10,0.46
2013-5-1,71.0,64.2,59.0,67.0,62.4,58.0,100,94,78,0.00,40.00,7,2,10,0.10
2013-5-2,68.0,63.0,58.0,65.0,60.3,56.0,100,91,75,0.00,40.00,8,3,13,0.28
2013-5-3,67.0,62.7,59.0,66.0,62.3,59.0,100,98,89,0.00,40.00,2,0,7,0.27
2013-5-4,66.0,62.4,60.0,65.0,62.2,60.0,100,99,95,0.00,40.00,6,1,10,0.58
2013-5-5,71.0,63.8,58.0,66.0,61.2,55.0,100,92,67,0.00,40.00,3,1,10,0.27
2013-5-6,73.0,61.5,54.0,57.0,54.5,51.0,100,80,53,0.00,40.00,5,2,12,0.02
2013-5-7,71.0,60.8,52.0,60.0,55.4,50.0,99,84,54,0.00,40.00,5,2,10,0.00
2013-5-8,69.0,60.9,54.0,65.0,58.9,53.0,100,93,81,0.00,40.00,4,1,9,0.00
2013-5-9,71.0,62.8,57.0,63.0,59.4,57.0,100,89,73,0.00,40.00,4,1,10,0.00
2013-5-10,70.0,61.7,57.0,62.0,55.3,-99.9,100,87,71,0.00,40.00,7,2,13,0.00
2013-5-11,69.0,60.5,55.0,61.0,54.3,-99.9,98,84,64,0.00,40.00,8,6,17,0.00
2013-5-12,71.0,62.8,56.0,61.0,57.0,52.0,94,82,64,0.00,40.00,10,5,20,0.00
2013-5-13,71.0,63.8,59.0,67.0,62.5,58.0,100,95,86,0.00,40.00,10,3,20,0.48
2013-5-14,74.0,65.8,60.0,65.0,61.2,56.0,100,86,68,0.00,40.00,9,3,21,0.01
2013-5-15,74.0,66.8,61.0,60.0,57.8,56.0,87,74,55,0.00,40.00,11,6,21,0.00
2013-5-16,74.0,62.5,60.0,60.0,40.8,-99.9,91,73,50,0.00,40.00,9,4,19,0.00
2013-5-17,74.0,64.7,58.0,62.0,54.7,-99.9,91,76,51,0.00,40.00,9,4,17,0.00
2013-5-18,74.0,64.8,56.0,65.0,57.5,53.0,95,78,60,0.00,40.00,9,4,19,0.00
2013-5-19,76.0,63.4,56.0,63.0,56.5,52.0,93,79,59,0.00,40.00,8,3,16,0.01
2013-5-20,68.0,58.3,52.0,61.0,53.9,44.0,99,86,68,0.00,40.00,7,3,14,0.39
2013-5-21,65.0,60.0,54.0,63.0,57.2,52.0,100,91,74,0.00,40.00,7,1,11,0.08
2013-5-22,72.0,63.3,56.0,61.0,57.5,55.0,100,83,62,0.00,40.00,7,3,12,0.02
2013-5-23,72.0,63.9,58.0,66.0,59.5,56.0,98,87,58,0.00,40.00,6,2,12,0.06
2013-5-24,75.0,66.5,60.0,65.0,59.6,55.0,99,80,58,0.00,40.00,10,5,21,0.10
2013-5-25,75.0,67.2,62.0,61.0,58.8,56.0,91,76,58,0.00,40.00,10,6,22,0.02
2013-5-26,76.0,66.1,61.0,64.0,56.6,54.0,87,73,52,0.00,40.00,11,7,22,0.00
2013-5-27,74.0,64.0,57.0,65.0,58.7,55.0,98,84,65,0.00,40.00,9,4,15,0.26
2013-5-28,71.0,62.3,57.0,63.0,58.4,54.0,100,88,63,0.00,40.00,9,3,14,0.60
2013-5-29,72.0,64.4,58.0,65.0,61.7,57.0,100,91,77,0.00,40.00,6,2,10,0.03
2013-5-30,70.0,64.1,59.0,66.0,61.8,58.0,100,93,74,0.00,40.00,4,1,10,0.00
2013-5-31,76.0,65.9,59.0,69.0,62.9,59.0,100,91,65,0.00,40.00,4,1,11,0.00
2013-6-1,73.0,66.1,60.0,67.0,62.7,59.0,100,89,64,0.00,40.00,5,2,13,0.00
2013-6-2,78.0,68.8,60.0,65.0,60.1,55.0,95,75,55,0.00,40.00,12,6,21,0.00
2013-6-3,79.0,67.8,61.0,64.0,57.4,54.0,87,70,49,0.00,40.00,11,5,21,0.00
2013-6-4,76.0,66.7,59.0,64.0,58.6,54.0,90,76,62,0.00,40.00,12,3,23,0.00
2013-6-5,76.0,66.4,57.0,64.0,56.8,54.0,92,73,49,0.00,40.00,11,5,23,0.00
2013-6-6,74.0,65.5,60.0,60.0,56.3,54.0,87,73,52,0.00,40.00,10,5,23,0.00
2013-6-7,72.0,64.3,59.0,60.0,55.7,52.0,89,75,56,0.00,40.00,11,5,22,0.00
2013-6-8,75.0,65.7,61.0,59.0,56.3,55.0,86,73,50,0.00,40.00,10,5,20,0.00
2013-6-9,74.0,65.7,61.0,64.0,57.4,54.0,85,75,56,0.00,40.00,9,6,19,0.00
2013-6-10,77.0,66.5,61.0,62.0,57.7,56.0,91,75,56,0.00,40.00,7,4,19,0.00
2013-6-11,74.0,65.6,62.0,64.0,60.2,57.0,93,83,63,0.00,40.00,8,4,17,0.00
2013-6-12,76.0,66.9,60.0,64.0,58.2,52.0,100,77,44,0.00,40.00,11,5,22,0.02
2013-6-13,74.0,66.1,62.0,61.0,58.5,56.0,94,77,60,0.00,40.00,9,6,24,0.02
2013-6-14,74.0,66.1,61.0,60.0,56.6,53.0,93,73,50,0.00,40.00,13,7,24,0.02
2013-6-15,72.0,65.7,60.0,60.0,56.9,53.0,83,74,59,0.00,40.00,10,6,21,0.00
2013-6-16,75.0,65.8,58.0,64.0,57.8,53.0,96,76,59,0.00,40.00,10,3,21,0.00
2013-6-17,74.0,65.5,60.0,63.0,58.1,56.0,89,78,59,0.00,40.00,9,4,18,0.00
2013-6-18,72.0,65.7,62.0,63.0,59.1,56.0,89,80,65,0.00,40.00,9,6,17,0.00
2013-6-19,73.0,66.1,62.0,68.0,59.1,55.0,96,79,59,0.00,40.00,9,5,18,0.01